| time (UTC) | temp C | wind direction | speed KPH | gust KPH | rain 1hr cm | rain 24hr cm | rain mn cm | humidity % | barometer mb |
| 20260902034326 | 20 | 266 | 22.5 | 35.4 | 0.00 | 0.00 | 0.00 | 43 | 1007.1 |
| 20260902033341 | 20 | 236 | 17.7 | 29.0 | 0.00 | 0.00 | 0.00 | 43 | 1007.1 |
| 20260902032350 | 20 | 256 | 16.1 | 25.7 | 0.00 | 0.00 | 0.00 | 41 | 1006.9 |
| 20260902031337 | 21 | 228 | 14.5 | 22.5 | 0.00 | 0.00 | 0.00 | 41 | 1006.7 |
| 20260902030338 | 21 | 252 | 14.5 | 19.3 | 0.00 | 0.00 | 0.00 | 41 | 1006.6 |
| 20260902025340 | 21 | 254 | 12.9 | 25.7 | 0.00 | 0.00 | 0.00 | 41 | 1006.5 |
| 20260902024338 | 22 | 246 | 12.9 | 19.3 | 0.00 | 0.00 | 0.00 | 39 | 1006.4 |
| 20260902023334 | 22 | 255 | 9.7 | 16.1 | 0.00 | 0.00 | 0.00 | 38 | 1006.1 |
| 20260902022329 | 22 | 247 | 11.3 | 14.5 | 0.00 | 0.00 | 0.00 | 37 | 1006.1 |
| 20260902021348 | 23 | 250 | 11.3 | 14.5 | 0.00 | 0.00 | 0.00 | 35 | 1006.0 |
| 20260902020358 | 23 | 275 | 9.7 | 20.9 | 0.00 | 0.00 | 0.00 | 35 | 1006.0 |
| 20260902015328 | 24 | 266 | 12.9 | 19.3 | 0.00 | 0.00 | 0.00 | 36 | 1005.9 |
| 20260902014337 | 25 | 265 | 12.9 | 20.9 | 0.00 | 0.00 | 0.00 | 37 | 1006.0 |
| 20260902013351 | 25 | 263 | 16.1 | 22.5 | 0.00 | 0.00 | 0.00 | 36 | 1006.0 |
| 20260902012336 | 25 | 273 | 11.3 | 14.5 | 0.00 | 0.00 | 0.00 | 35 | 1005.9 |
| 20260902011420 | 26 | 284 | 3.2 | 8.0 | 0.00 | 0.00 | 0.00 | 35 | 1005.9 |
| 20260902010400 | 26 | 273 | 3.2 | 8.0 | 0.00 | 0.00 | 0.00 | 35 | 1005.7 |
| 20260902005341 | 26 | 271 | 4.8 | 9.7 | 0.00 | 0.00 | 0.00 | 35 | 1005.7 |
| 20260902004333 | 26 | 283 | 4.8 | 9.7 | 0.00 | 0.00 | 0.00 | 35 | 1005.7 |
| 20260902003328 | 26 | 278 | 0.0 | 3.2 | 0.00 | 0.00 | 0.00 | 35 | 1005.7 |
| 20260902002328 | 26 | 277 | 1.6 | 11.3 | 0.00 | 0.00 | 0.00 | 35 | 1005.7 |
| 20260902001329 | 27 | 262 | 9.7 | 12.9 | 0.00 | 0.00 | 0.00 | 32 | 1005.6 |
| 20260902000339 | 27 | 277 | 4.8 | 20.9 | 0.00 | 0.00 | 0.00 | 33 | 1005.6 |
| 20260901235327 | 27 | 252 | 12.9 | 27.4 | 0.00 | 0.00 | 0.00 | 30 | 1005.7 |
| 20260901234330 | 27 | 257 | 6.4 | 12.9 | 0.00 | 0.00 | 0.00 | 31 | 1005.7 |
| 20260901233328 | 27 | 303 | 11.3 | 22.5 | 0.00 | 0.00 | 0.00 | 32 | 1005.7 |
| 20260901232407 | 27 | 274 | 8.0 | 22.5 | 0.00 | 0.00 | 0.00 | 32 | 1005.9 |
| 20260901231337 | 27 | 251 | 12.9 | 17.7 | 0.00 | 0.00 | 0.00 | 33 | 1005.9 |
| 20260901230336 | 27 | 288 | 12.9 | 24.1 | 0.00 | 0.00 | 0.00 | 33 | 1006.0 |
| 20260901225337 | 26 | 277 | 14.5 | 24.1 | 0.00 | 0.00 | 0.00 | 34 | 1006.1 |
| 20260901224340 | 26 | 267 | 16.1 | 24.1 | 0.00 | 0.00 | 0.00 | 34 | 1006.1 |
| 20260901223333 | 26 | 251 | 14.5 | 24.1 | 0.00 | 0.00 | 0.00 | 37 | 1006.2 |
| 20260901222343 | 26 | 258 | 16.1 | 22.5 | 0.00 | 0.00 | 0.00 | 38 | 1006.3 |
| 20260901221352 | 25 | 258 | 16.1 | 22.5 | 0.00 | 0.00 | 0.00 | 39 | 1006.6 |
| 20260901220352 | 25 | 273 | 19.3 | 27.4 | 0.00 | 0.00 | 0.00 | 38 | 1006.6 |
| 20260901215348 | 25 | 279 | 14.5 | 24.1 | 0.00 | 0.00 | 0.00 | 39 | 1006.6 |
| 20260901214350 | 25 | 285 | 16.1 | 27.4 | 0.00 | 0.00 | 0.00 | 40 | 1006.4 |
| 20260901213343 | 25 | 264 | 17.7 | 24.1 | 0.00 | 0.00 | 0.00 | 41 | 1006.6 |
| 20260901212348 | 25 | 274 | 11.3 | 20.9 | 0.00 | 0.00 | 0.00 | 41 | 1006.8 |
| 20260901211410 | 25 | 257 | 17.7 | 22.5 | 0.00 | 0.00 | 0.00 | 41 | 1006.9 |
| 20260901210333 | 25 | 286 | 12.9 | 22.5 | 0.00 | 0.00 | 0.00 | 42 | 1007.1 |
| 20260901205342 | 24 | 258 | 17.7 | 25.7 | 0.00 | 0.00 | 0.00 | 41 | 1007.3 |
| 20260901204340 | 23 | 267 | 12.9 | 22.5 | 0.00 | 0.00 | 0.00 | 45 | 1007.3 |
| 20260901203353 | 23 | 263 | 19.3 | 27.4 | 0.00 | 0.00 | 0.00 | 45 | 1007.3 |
| 20260901202341 | 23 | 293 | 16.1 | 25.7 | 0.00 | 0.00 | 0.00 | 44 | 1007.4 |
| 20260901201343 | 23 | 269 | 16.1 | 29.0 | 0.00 | 0.00 | 0.00 | 45 | 1007.5 |
| 20260901200413 | 23 | 264 | 19.3 | 29.0 | 0.00 | 0.00 | 0.00 | 47 | 1007.5 |
| 20260901195339 | 22 | 277 | 19.3 | 27.4 | 0.00 | 0.00 | 0.00 | 47 | 1007.7 |
| 20260901194329 | 22 | 267 | 19.3 | 25.7 | 0.00 | 0.00 | 0.00 | 47 | 1007.8 |
| 20260901193339 | 21 | 251 | 14.5 | 19.3 | 0.00 | 0.00 | 0.00 | 51 | 1007.7 |
| 20260901192338 | 21 | 271 | 14.5 | 19.3 | 0.00 | 0.00 | 0.00 | 52 | 1008.1 |
| 20260901191338 | 20 | 274 | 11.3 | 16.1 | 0.00 | 0.00 | 0.00 | 54 | 1008.5 |
| 20260901190351 | 20 | 265 | 6.4 | 19.3 | 0.00 | 0.00 | 0.00 | 54 | 1008.7 |
| 20260901185358 | 20 | 271 | 9.7 | 12.9 | 0.00 | 0.00 | 0.00 | 53 | 1008.5 |
| 20260901184354 | 20 | 249 | 8.0 | 11.3 | 0.00 | 0.00 | 0.00 | 53 | 1008.5 |
| 20260901183329 | 20 | 263 | 6.4 | 12.9 | 0.00 | 0.00 | 0.00 | 53 | 1008.5 |
| 20260901182340 | 20 | 269 | 8.0 | 12.9 | 0.00 | 0.00 | 0.00 | 53 | 1008.5 |
| 20260901181347 | 20 | 258 | 11.3 | 14.5 | 0.00 | 0.00 | 0.00 | 52 | 1008.5 |
| 20260901180337 | 20 | 273 | 11.3 | 22.5 | 0.00 | 0.00 | 0.00 | 51 | 1008.7 |
| 20260901175352 | 20 | 257 | 17.7 | 22.5 | 0.00 | 0.00 | 0.00 | 50 | 1008.5 |
| 20260901174346 | 20 | 259 | 12.9 | 16.1 | 0.00 | 0.00 | 0.00 | 50 | 1008.3 |
| 20260901173334 | 20 | 282 | 4.8 | 12.9 | 0.00 | 0.00 | 0.00 | 51 | 1008.0 |
| 20260901172406 | 20 | 290 | 9.7 | 14.5 | 0.00 | 0.00 | 0.00 | 50 | 1008.3 |
| 20260901171352 | 20 | 277 | 11.3 | 17.7 | 0.00 | 0.00 | 0.00 | 50 | 1008.6 |
| 20260901170344 | 20 | 261 | 14.5 | 20.9 | 0.00 | 0.00 | 0.00 | 49 | 1008.7 |
| 20260901165337 | 20 | 283 | 14.5 | 24.1 | 0.00 | 0.00 | 0.00 | 49 | 1008.6 |
| 20260901164343 | 20 | 254 | 17.7 | 25.7 | 0.00 | 0.00 | 0.00 | 48 | 1008.9 |
| 20260901163353 | 20 | 273 | 14.5 | 20.9 | 0.00 | 0.00 | 0.00 | 47 | 1008.3 |
| 20260901162400 | 20 | 282 | 16.1 | 22.5 | 0.00 | 0.00 | 0.00 | 47 | 1008.1 |
| 20260901161334 | 20 | 276 | 16.1 | 19.3 | 0.00 | 0.00 | 0.00 | 46 | 1008.1 |
| 20260901160403 | 20 | 271 | 14.5 | 17.7 | 0.00 | 0.00 | 0.00 | 45 | 1008.0 |
| 20260901155334 | 20 | 255 | 12.9 | 17.7 | 0.00 | 0.00 | 0.00 | 44 | 1008.1 |
| 20260901154343 | 20 | 268 | 14.5 | 20.9 | 0.00 | 0.00 | 0.00 | 43 | 1008.2 |
| 20260901153328 | 20 | 251 | 12.9 | 19.3 | 0.00 | 0.00 | 0.00 | 44 | 1008.2 |
| 20260901152341 | 19 | 267 | 8.0 | 12.9 | 0.00 | 0.00 | 0.00 | 45 | 1008.3 |
| 20260901151341 | 17 | 159 | 0.0 | 4.8 | 0.00 | 0.00 | 0.00 | 46 | 1008.2 |
| 20260901150407 | 16 | 145 | 3.2 | 6.4 | 0.00 | 0.00 | 0.00 | 47 | 1008.1 |
| 20260901145332 | 16 | 147 | 4.8 | 8.0 | 0.00 | 0.00 | 0.00 | 48 | 1008.1 |
| 20260901144401 | 15 | 144 | 1.6 | 3.2 | 0.00 | 0.00 | 0.00 | 49 | 1007.8 |
| 20260901143334 | 15 | 145 | 0.0 | 4.8 | 0.00 | 0.00 | 0.00 | 50 | 1007.9 |
| 20260901142336 | 14 | 146 | 4.8 | 6.4 | 0.00 | 0.00 | 0.00 | 52 | 1007.8 |
| 20260901141346 | 13 | 152 | 0.0 | 1.6 | 0.00 | 0.00 | 0.00 | 52 | 1007.8 |
| 20260901140415 | 13 | 152 | 1.6 | 3.2 | 0.00 | 0.00 | 0.00 | 53 | 1007.8 |
| 20260901135401 | 13 | 151 | 0.0 | 3.2 | 0.00 | 0.00 | 0.00 | 52 | 1007.6 |
| 20260901134335 | 13 | 151 | 3.2 | 4.8 | 0.00 | 0.00 | 0.00 | 52 | 1007.4 |
| 20260901133333 | 13 | 152 | 0.0 | 6.4 | 0.00 | 0.00 | 0.00 | 51 | 1007.3 |
| 20260901132408 | 13 | 146 | 0.0 | 4.8 | 0.00 | 0.00 | 0.00 | 50 | 1007.2 |
| 20260901131353 | 14 | 145 | 0.0 | 3.2 | 0.00 | 0.00 | 0.00 | 49 | 1007.1 |
| 20260901130340 | 14 | 145 | 0.0 | 1.6 | 0.00 | 0.00 | 0.00 | 50 | 1007.0 |
| 20260901125330 | 14 | 144 | 1.6 | 3.2 | 0.00 | 0.00 | 0.00 | 49 | 1006.8 |
| 20260901124337 | 14 | 144 | 3.2 | 6.4 | 0.00 | 0.00 | 0.00 | 50 | 1007.0 |
| 20260901123336 | 14 | 144 | 1.6 | 6.4 | 0.00 | 0.00 | 0.00 | 50 | 1007.0 |
| 20260901122335 | 14 | 148 | 4.8 | 6.4 | 0.00 | 0.00 | 0.00 | 51 | 1007.0 |
| 20260901121337 | 14 | 146 | 4.8 | 6.4 | 0.00 | 0.00 | 0.00 | 52 | 1007.0 |
| 20260901120332 | 13 | 153 | 3.2 | 6.4 | 0.00 | 0.00 | 0.00 | 52 | 1007.0 |
| 20260901115344 | 14 | 146 | 0.0 | 4.8 | 0.00 | 0.00 | 0.00 | 51 | 1006.9 |
| 20260901114358 | 15 | 146 | 0.0 | 0.0 | 0.00 | 0.00 | 0.00 | 50 | 1006.9 |
| 20260901113351 | 15 | 146 | 0.0 | 1.6 | 0.00 | 0.00 | 0.00 | 50 | 1006.9 |
| 20260901112338 | 16 | 146 | 0.0 | 3.2 | 0.00 | 0.00 | 0.00 | 50 | 1006.9 |
| 20260901111351 | 16 | 145 | 0.0 | 4.8 | 0.00 | 0.00 | 0.00 | 50 | 1007.0 |
| 20260901110331 | 16 | 148 | 3.2 | 6.4 | 0.00 | 0.00 | 0.00 | 50 | 1007.1 |
| 20260901105341 | 15 | 140 | 3.2 | 4.8 | 0.00 | 0.00 | 0.00 | 52 | 1007.2 |
| 20260901104335 | 15 | 139 | 3.2 | 8.0 | 0.00 | 0.00 | 0.00 | 53 | 1007.3 |
| 20260901103403 | 15 | 119 | 6.4 | 9.7 | 0.00 | 0.00 | 0.00 | 53 | 1007.3 |
| 20260901102348 | 14 | 148 | 1.6 | 6.4 | 0.00 | 0.00 | 0.00 | 54 | 1007.1 |
| 20260901101329 | 14 | 144 | 3.2 | 8.0 | 0.00 | 0.00 | 0.00 | 54 | 1007.3 |
| 20260901100357 | 14 | 147 | 6.4 | 8.0 | 0.00 | 0.00 | 0.00 | 54 | 1007.4 |
| 20260901095355 | 13 | 135 | 6.4 | 9.7 | 0.00 | 0.00 | 0.00 | 55 | 1007.5 |
| 20260901094334 | 13 | 153 | 6.4 | 12.9 | 0.00 | 0.00 | 0.00 | 55 | 1007.5 |
| 20260901093341 | 13 | 158 | 1.6 | 9.7 | 0.00 | 0.00 | 0.00 | 57 | 1007.5 |
| 20260901092327 | 12 | 148 | 1.6 | 9.7 | 0.00 | 0.00 | 0.00 | 57 | 1007.6 |
| 20260901091356 | 12 | 136 | 6.4 | 11.3 | 0.00 | 0.00 | 0.00 | 58 | 1007.6 |
| 20260901090356 | 12 | 149 | 6.4 | 11.3 | 0.00 | 0.00 | 0.00 | 57 | 1007.6 |
| 20260901085338 | 12 | 139 | 4.8 | 11.3 | 0.00 | 0.00 | 0.00 | 56 | 1007.6 |
| 20260901084327 | 12 | 151 | 3.2 | 11.3 | 0.00 | 0.00 | 0.00 | 57 | 1007.6 |
| 20260901083345 | 12 | 145 | 9.7 | 12.9 | 0.00 | 0.00 | 0.00 | 57 | 1007.5 |
| 20260901082331 | 13 | 163 | 0.0 | 4.8 | 0.00 | 0.00 | 0.00 | 56 | 1007.7 |
| 20260901081350 | 12 | 161 | 4.8 | 11.3 | 0.00 | 0.00 | 0.00 | 57 | 1007.7 |
| 20260901080346 | 13 | 153 | 3.2 | 9.7 | 0.00 | 0.00 | 0.00 | 54 | 1007.8 |
| 20260901075327 | 13 | 157 | 0.0 | 3.2 | 0.00 | 0.00 | 0.00 | 55 | 1007.7 |
| 20260901074351 | 13 | 150 | 8.0 | 9.7 | 0.00 | 0.00 | 0.00 | 52 | 1007.6 |
| 20260901073333 | 14 | 151 | 0.0 | 4.8 | 0.00 | 0.00 | 0.00 | 55 | 1007.6 |
| 20260901072345 | 14 | 151 | 1.6 | 6.4 | 0.00 | 0.00 | 0.00 | 51 | 1007.8 |
| 20260901071338 | 15 | 151 | 0.0 | 3.2 | 0.00 | 0.00 | 0.00 | 51 | 1007.7 |
| 20260901070406 | 15 | 150 | 0.0 | 6.4 | 0.00 | 0.00 | 0.00 | 50 | 1007.5 |
| 20260901065332 | 15 | 146 | 1.6 | 4.8 | 0.00 | 0.00 | 0.00 | 51 | 1007.4 |
| 20260901064359 | 15 | 140 | 9.7 | 12.9 | 0.00 | 0.00 | 0.00 | 49 | 1007.5 |
| 20260901063332 | 16 | 166 | 0.0 | 12.9 | 0.00 | 0.00 | 0.00 | 49 | 1007.4 |
| 20260901062407 | 17 | 150 | 11.3 | 12.9 | 0.00 | 0.00 | 0.00 | 47 | 1007.4 |
| 20260901061336 | 18 | 157 | 1.6 | 9.7 | 0.00 | 0.00 | 0.00 | 46 | 1007.4 |
| 20260901060333 | 18 | 168 | 4.8 | 11.3 | 0.00 | 0.00 | 0.00 | 45 | 1007.3 |
| 20260901055354 | 19 | 259 | 0.0 | 0.0 | 0.00 | 0.00 | 0.00 | 44 | 1007.3 |
| 20260901054344 | 20 | 257 | 0.0 | 3.2 | 0.00 | 0.00 | 0.00 | 43 | 1007.5 |
| 20260901053452 | 20 | 257 | 1.6 | 8.0 | 0.00 | 0.00 | 0.00 | 42 | 1007.6 |
| 20260901052339 | 22 | 287 | 3.2 | 8.0 | 0.00 | 0.00 | 0.00 | 38 | 1007.9 |
| 20260901051348 | 22 | 290 | 1.6 | 3.2 | 0.00 | 0.00 | 0.00 | 40 | 1007.8 |
| 20260901050344 | 21 | 280 | 3.2 | 9.7 | 0.00 | 0.00 | 0.00 | 41 | 1007.4 |
| 20260901045346 | 21 | 271 | 6.4 | 9.7 | 0.00 | 0.00 | 0.00 | 40 | 1007.3 |
| 20260901044353 | 22 | 280 | 0.0 | 4.8 | 0.00 | 0.00 | 0.00 | 39 | 1007.3 |
| 20260901043330 | 22 | 280 | 1.6 | 6.4 | 0.00 | 0.00 | 0.00 | 39 | 1007.3 |
| 20260901042344 | 22 | 5 | 1.6 | 6.4 | 0.00 | 0.00 | 0.00 | 39 | 1007.4 |
| 20260901041337 | 22 | 5 | 3.2 | 9.7 | 0.00 | 0.00 | 0.00 | 39 | 1007.4 |
| 20260901040358 | 22 | 9 | 4.8 | 9.7 | 0.00 | 0.00 | 0.00 | 39 | 1007.4 |
| 20260901035352 | 22 | 5 | 8.0 | 11.3 | 0.00 | 0.00 | 0.00 | 39 | 1007.4 |